Porcupine, South Dakota
Current Conditions -  °F | °C
As of 1:52 AM on Monday 24 Nov 2014 (Local Time) from KIEN Reporting Station
Clear Clear  
Wind Chill: 19°   Ceiling: Unl
Heat Index: 27°   Visibility: 10mi
Dew Point: 20°   Wind: 8mph
Humidity: 75%   Direction: 290°WNW
Pressure: 29.75"   Gusts: NA
Location:  43.24°N, 102.33°W
Report Text: KIEN 240852Z AUTO 29007KT 10SM CLR M03/M07 A2975 RMK AO2 SLP096 T10281067 53002
Loading
Personal Weather Stations






























Interactive Weather Map New forecast layout! Learn more

10-Day Weather Forecast

Advertisements
Track Severe Weather on mobile